sensor_id;sensor_type;location;lat;lon;timestamp;P1;durP1;ratioP1;P2;durP2;ratioP2
2029;SDS011;1020;48.854;8.830;2023-04-25T00:00:50;7.40;;;4.33;;
2029;SDS011;1020;48.854;8.830;2023-04-25T00:03:18;4.70;;;4.30;;
2029;SDS011;1020;48.854;8.830;2023-04-25T00:05:46;4.60;;;4.23;;
2029;SDS011;1020;48.854;8.830;2023-04-25T00:08:14;4.67;;;4.30;;
2029;SDS011;1020;48.854;8.830;2023-04-25T00:10:41;4.43;;;4.03;;
2029;SDS011;1020;48.854;8.830;2023-04-25T00:13:07;4.73;;;4.33;;
2029;SDS011;1020;48.854;8.830;2023-04-25T00:15:36;5.50;;;4.73;;
2029;SDS011;1020;48.854;8.830;2023-04-25T00:18:03;5.47;;;4.37;;
2029;SDS011;1020;48.854;8.830;2023-04-25T00:20:31;4.53;;;4.20;;
2029;SDS011;1020;48.854;8.830;2023-04-25T00:22:58;4.90;;;4.50;;
2029;SDS011;1020;48.854;8.830;2023-04-25T00:25:26;6.20;;;4.87;;
2029;SDS011;1020;48.854;8.830;2023-04-25T00:27:52;4.70;;;4.30;;
2029;SDS011;1020;48.854;8.830;2023-04-25T00:30:19;4.13;;;3.73;;
2029;SDS011;1020;48.854;8.830;2023-04-25T00:32:46;5.87;;;4.47;;
2029;SDS011;1020;48.854;8.830;2023-04-25T00:35:13;4.27;;;3.90;;
2029;SDS011;1020;48.854;8.830;2023-04-25T00:37:40;5.60;;;5.10;;
2029;SDS011;1020;48.854;8.830;2023-04-25T00:40:07;4.97;;;4.50;;
2029;SDS011;1020;48.854;8.830;2023-04-25T00:42:36;5.60;;;4.70;;
2029;SDS011;1020;48.854;8.830;2023-04-25T00:45:04;5.57;;;5.07;;
2029;SDS011;1020;48.854;8.830;2023-04-25T00:47:33;6.03;;;5.40;;
2029;SDS011;1020;48.854;8.830;2023-04-25T00:50:01;4.97;;;4.53;;
2029;SDS011;1020;48.854;8.830;2023-04-25T00:52:28;4.90;;;4.47;;
2029;SDS011;1020;48.854;8.830;2023-04-25T00:54:54;5.07;;;4.60;;
2029;SDS011;1020;48.854;8.830;2023-04-25T00:57:21;4.47;;;4.03;;
2029;SDS011;1020;48.854;8.830;2023-04-25T00:59:49;4.60;;;4.20;;
2029;SDS011;1020;48.854;8.830;2023-04-25T01:02:18;4.70;;;4.40;;
2029;SDS011;1020;48.854;8.830;2023-04-25T01:04:45;4.73;;;3.60;;
2029;SDS011;1020;48.854;8.830;2023-04-25T01:07:13;4.30;;;3.33;;
2029;SDS011;1020;48.854;8.830;2023-04-25T01:09:40;3.20;;;3.00;;
2029;SDS011;1020;48.854;8.830;2023-04-25T01:12:07;3.63;;;3.07;;
2029;SDS011;1020;48.854;8.830;2023-04-25T01:14:34;3.10;;;2.90;;
2029;SDS011;1020;48.854;8.830;2023-04-25T01:17:02;3.17;;;2.80;;
2029;SDS011;1020;48.854;8.830;2023-04-25T01:19:29;3.50;;;3.20;;
2029;SDS011;1020;48.854;8.830;2023-04-25T01:21:57;4.30;;;3.20;;
2029;SDS011;1020;48.854;8.830;2023-04-25T01:24:24;3.70;;;3.40;;
2029;SDS011;1020;48.854;8.830;2023-04-25T01:26:51;3.50;;;3.20;;
2029;SDS011;1020;48.854;8.830;2023-04-25T01:29:21;3.33;;;3.13;;
2029;SDS011;1020;48.854;8.830;2023-04-25T01:31:49;4.87;;;3.37;;
2029;SDS011;1020;48.854;8.830;2023-04-25T01:34:18;3.40;;;3.10;;
2029;SDS011;1020;48.854;8.830;2023-04-25T01:36:44;3.30;;;3.07;;
2029;SDS011;1020;48.854;8.830;2023-04-25T01:39:13;3.43;;;2.93;;
2029;SDS011;1020;48.854;8.830;2023-04-25T01:41:41;3.50;;;3.20;;
2029;SDS011;1020;48.854;8.830;2023-04-25T01:44:08;3.53;;;3.20;;
2029;SDS011;1020;48.854;8.830;2023-04-25T01:46:35;3.67;;;3.37;;
2029;SDS011;1020;48.854;8.830;2023-04-25T01:49:02;3.90;;;3.60;;
2029;SDS011;1020;48.854;8.830;2023-04-25T01:51:29;3.60;;;3.17;;
2029;SDS011;1020;48.854;8.830;2023-04-25T01:53:56;3.80;;;3.47;;
2029;SDS011;1020;48.854;8.830;2023-04-25T01:56:25;3.90;;;3.60;;
2029;SDS011;1020;48.854;8.830;2023-04-25T01:58:55;3.07;;;2.70;;
2029;SDS011;1020;48.854;8.830;2023-04-25T02:01:22;4.27;;;3.87;;
2029;SDS011;1020;48.854;8.830;2023-04-25T02:03:49;3.90;;;3.23;;
2029;SDS011;1020;48.854;8.830;2023-04-25T02:06:16;3.63;;;3.00;;
2029;SDS011;1020;48.854;8.830;2023-04-25T02:08:42;3.67;;;3.47;;
2029;SDS011;1020;48.854;8.830;2023-04-25T02:11:09;4.50;;;3.37;;
2029;SDS011;1020;48.854;8.830;2023-04-25T02:13:37;3.40;;;3.20;;
2029;SDS011;1020;48.854;8.830;2023-04-25T02:16:04;3.80;;;3.30;;
2029;SDS011;1020;48.854;8.830;2023-04-25T02:18:31;3.63;;;3.43;;
2029;SDS011;1020;48.854;8.830;2023-04-25T02:20:58;3.33;;;3.03;;
2029;SDS011;1020;48.854;8.830;2023-04-25T02:23:26;4.63;;;4.23;;
2029;SDS011;1020;48.854;8.830;2023-04-25T02:25:52;4.00;;;3.70;;
2029;SDS011;1020;48.854;8.830;2023-04-25T02:28:20;6.30;;;3.90;;
2029;SDS011;1020;48.854;8.830;2023-04-25T02:30:48;4.20;;;3.80;;
2029;SDS011;1020;48.854;8.830;2023-04-25T02:33:15;4.00;;;3.80;;
2029;SDS011;1020;48.854;8.830;2023-04-25T02:35:42;4.20;;;3.90;;
2029;SDS011;1020;48.854;8.830;2023-04-25T02:38:08;4.43;;;4.13;;
2029;SDS011;1020;48.854;8.830;2023-04-25T02:40:35;4.80;;;4.40;;
2029;SDS011;1020;48.854;8.830;2023-04-25T02:43:02;5.00;;;4.20;;
2029;SDS011;1020;48.854;8.830;2023-04-25T02:45:29;5.40;;;5.00;;
2029;SDS011;1020;48.854;8.830;2023-04-25T02:47:57;6.07;;;5.47;;
2029;SDS011;1020;48.854;8.830;2023-04-25T02:50:24;6.43;;;5.93;;
2029;SDS011;1020;48.854;8.830;2023-04-25T02:52:50;8.20;;;7.23;;
2029;SDS011;1020;48.854;8.830;2023-04-25T02:55:17;7.70;;;6.77;;
2029;SDS011;1020;48.854;8.830;2023-04-25T02:57:44;9.93;;;6.10;;
2029;SDS011;1020;48.854;8.830;2023-04-25T03:00:11;7.57;;;6.97;;
2029;SDS011;1020;48.854;8.830;2023-04-25T03:02:39;7.37;;;6.70;;
2029;SDS011;1020;48.854;8.830;2023-04-25T03:05:08;7.77;;;6.70;;
2029;SDS011;1020;48.854;8.830;2023-04-25T03:07:34;8.43;;;7.67;;
2029;SDS011;1020;48.854;8.830;2023-04-25T03:10:01;8.00;;;7.30;;
2029;SDS011;1020;48.854;8.830;2023-04-25T03:12:28;8.03;;;7.33;;
2029;SDS011;1020;48.854;8.830;2023-04-25T03:14:55;7.30;;;6.70;;
2029;SDS011;1020;48.854;8.830;2023-04-25T03:17:21;7.80;;;7.10;;
2029;SDS011;1020;48.854;8.830;2023-04-25T03:19:48;8.77;;;7.97;;
2029;SDS011;1020;48.854;8.830;2023-04-25T03:22:16;9.63;;;8.73;;
2029;SDS011;1020;48.854;8.830;2023-04-25T03:24:43;8.30;;;7.50;;
2029;SDS011;1020;48.854;8.830;2023-04-25T03:27:10;8.60;;;7.87;;
2029;SDS011;1020;48.854;8.830;2023-04-25T03:29:36;8.50;;;7.70;;
2029;SDS011;1020;48.854;8.830;2023-04-25T03:32:03;7.37;;;6.77;;
2029;SDS011;1020;48.854;8.830;2023-04-25T03:34:30;7.73;;;7.03;;
2029;SDS011;1020;48.854;8.830;2023-04-25T03:36:57;6.93;;;6.33;;
2029;SDS011;1020;48.854;8.830;2023-04-25T03:39:25;7.93;;;6.70;;
2029;SDS011;1020;48.854;8.830;2023-04-25T03:41:52;8.53;;;7.43;;
2029;SDS011;1020;48.854;8.830;2023-04-25T03:44:18;7.53;;;6.90;;
2029;SDS011;1020;48.854;8.830;2023-04-25T03:46:45;7.70;;;6.67;;
2029;SDS011;1020;48.854;8.830;2023-04-25T03:49:12;6.87;;;6.27;;
2029;SDS011;1020;48.854;8.830;2023-04-25T03:51:39;11.13;;;7.00;;
2029;SDS011;1020;48.854;8.830;2023-04-25T03:54:06;7.03;;;6.40;;
2029;SDS011;1020;48.854;8.830;2023-04-25T03:56:34;6.97;;;6.37;;
2029;SDS011;1020;48.854;8.830;2023-04-25T03:59:01;6.73;;;6.13;;
2029;SDS011;1020;48.854;8.830;2023-04-25T04:01:28;7.17;;;6.57;;
2029;SDS011;1020;48.854;8.830;2023-04-25T04:03:54;6.93;;;6.23;;
2029;SDS011;1020;48.854;8.830;2023-04-25T04:06:21;7.03;;;6.43;;
2029;SDS011;1020;48.854;8.830;2023-04-25T04:08:48;7.53;;;6.73;;
2029;SDS011;1020;48.854;8.830;2023-04-25T04:11:15;7.43;;;6.83;;
2029;SDS011;1020;48.854;8.830;2023-04-25T04:13:43;7.63;;;6.93;;
2029;SDS011;1020;48.854;8.830;2023-04-25T04:16:09;7.30;;;6.70;;
2029;SDS011;1020;48.854;8.830;2023-04-25T04:18:36;6.50;;;5.90;;
2029;SDS011;1020;48.854;8.830;2023-04-25T04:21:03;6.97;;;6.37;;
2029;SDS011;1020;48.854;8.830;2023-04-25T04:23:30;7.60;;;6.90;;
2029;SDS011;1020;48.854;8.830;2023-04-25T04:25:56;5.87;;;5.37;;
2029;SDS011;1020;48.854;8.830;2023-04-25T04:28:23;6.30;;;5.70;;
2029;SDS011;1020;48.854;8.830;2023-04-25T04:30:51;7.47;;;6.80;;
2029;SDS011;1020;48.854;8.830;2023-04-25T04:33:18;6.63;;;6.13;;
2029;SDS011;1020;48.854;8.830;2023-04-25T04:35:45;6.90;;;6.30;;
2029;SDS011;1020;48.854;8.830;2023-04-25T04:38:13;6.60;;;6.00;;
2029;SDS011;1020;48.854;8.830;2023-04-25T04:40:41;7.63;;;6.93;;
2029;SDS011;1020;48.854;8.830;2023-04-25T04:43:08;6.90;;;6.20;;
2029;SDS011;1020;48.854;8.830;2023-04-25T04:45:35;6.97;;;6.37;;
2029;SDS011;1020;48.854;8.830;2023-04-25T04:48:04;7.13;;;5.73;;
2029;SDS011;1020;48.854;8.830;2023-04-25T04:50:31;6.60;;;6.00;;
2029;SDS011;1020;48.854;8.830;2023-04-25T04:52:58;6.30;;;5.63;;
2029;SDS011;1020;48.854;8.830;2023-04-25T04:55:25;5.83;;;5.23;;
2029;SDS011;1020;48.854;8.830;2023-04-25T04:57:52;7.30;;;5.43;;
2029;SDS011;1020;48.854;8.830;2023-04-25T05:00:19;6.10;;;5.50;;
2029;SDS011;1020;48.854;8.830;2023-04-25T05:02:46;6.20;;;5.60;;
2029;SDS011;1020;48.854;8.830;2023-04-25T05:05:15;8.37;;;7.53;;
2029;SDS011;1020;48.854;8.830;2023-04-25T05:07:42;7.90;;;7.23;;
2029;SDS011;1020;48.854;8.830;2023-04-25T05:10:09;7.90;;;7.10;;
2029;SDS011;1020;48.854;8.830;2023-04-25T05:12:36;8.20;;;7.43;;
2029;SDS011;1020;48.854;8.830;2023-04-25T05:15:03;7.80;;;7.10;;
2029;SDS011;1020;48.854;8.830;2023-04-25T05:17:30;7.17;;;6.50;;
2029;SDS011;1020;48.854;8.830;2023-04-25T05:19:57;8.20;;;6.97;;
2029;SDS011;1020;48.854;8.830;2023-04-25T05:22:25;6.33;;;5.77;;
2029;SDS011;1020;48.854;8.830;2023-04-25T05:24:52;6.97;;;6.30;;
2029;SDS011;1020;48.854;8.830;2023-04-25T05:27:19;6.00;;;5.50;;
2029;SDS011;1020;48.854;8.830;2023-04-25T05:29:46;7.90;;;6.63;;
2029;SDS011;1020;48.854;8.830;2023-04-25T05:32:13;7.40;;;6.70;;
2029;SDS011;1020;48.854;8.830;2023-04-25T05:34:39;7.20;;;6.60;;
2029;SDS011;1020;48.854;8.830;2023-04-25T05:37:06;8.80;;;6.03;;
2029;SDS011;1020;48.854;8.830;2023-04-25T05:39:35;6.77;;;6.17;;
2029;SDS011;1020;48.854;8.830;2023-04-25T05:42:01;6.50;;;5.90;;
2029;SDS011;1020;48.854;8.830;2023-04-25T05:44:28;7.13;;;6.40;;
2029;SDS011;1020;48.854;8.830;2023-04-25T05:46:56;8.40;;;7.70;;
2029;SDS011;1020;48.854;8.830;2023-04-25T05:49:23;7.47;;;6.77;;
2029;SDS011;1020;48.854;8.830;2023-04-25T05:51:49;8.80;;;6.23;;
2029;SDS011;1020;48.854;8.830;2023-04-25T05:54:16;6.30;;;5.70;;
2029;SDS011;1020;48.854;8.830;2023-04-25T05:56:44;9.80;;;6.57;;
2029;SDS011;1020;48.854;8.830;2023-04-25T05:59:11;6.23;;;5.63;;
2029;SDS011;1020;48.854;8.830;2023-04-25T06:01:38;5.77;;;5.17;;
2029;SDS011;1020;48.854;8.830;2023-04-25T06:04:05;6.03;;;5.43;;
2029;SDS011;1020;48.854;8.830;2023-04-25T06:06:31;6.40;;;5.80;;
2029;SDS011;1020;48.854;8.830;2023-04-25T06:08:58;5.97;;;5.50;;
2029;SDS011;1020;48.854;8.830;2023-04-25T06:11:25;6.23;;;5.63;;
2029;SDS011;1020;48.854;8.830;2023-04-25T06:13:53;4.77;;;4.40;;
2029;SDS011;1020;48.854;8.830;2023-04-25T06:16:20;5.43;;;5.03;;
2029;SDS011;1020;48.854;8.830;2023-04-25T06:18:46;5.37;;;4.97;;
2029;SDS011;1020;48.854;8.830;2023-04-25T06:21:13;7.87;;;7.17;;
2029;SDS011;1020;48.854;8.830;2023-04-25T06:23:40;6.90;;;6.20;;
2029;SDS011;1020;48.854;8.830;2023-04-25T06:26:07;5.57;;;5.07;;
2029;SDS011;1020;48.854;8.830;2023-04-25T06:28:33;6.10;;;5.60;;
2029;SDS011;1020;48.854;8.830;2023-04-25T06:31:01;5.80;;;5.40;;
2029;SDS011;1020;48.854;8.830;2023-04-25T06:33:28;5.57;;;5.07;;
2029;SDS011;1020;48.854;8.830;2023-04-25T06:35:55;6.00;;;5.50;;
2029;SDS011;1020;48.854;8.830;2023-04-25T06:38:22;6.60;;;6.10;;
2029;SDS011;1020;48.854;8.830;2023-04-25T06:40:48;5.93;;;5.43;;
2029;SDS011;1020;48.854;8.830;2023-04-25T06:43:16;5.87;;;5.43;;
2029;SDS011;1020;48.854;8.830;2023-04-25T06:45:42;6.20;;;5.67;;
2029;SDS011;1020;48.854;8.830;2023-04-25T06:48:11;6.60;;;6.07;;
2029;SDS011;1020;48.854;8.830;2023-04-25T06:50:37;6.00;;;5.50;;
2029;SDS011;1020;48.854;8.830;2023-04-25T06:53:04;6.50;;;5.90;;
2029;SDS011;1020;48.854;8.830;2023-04-25T06:55:31;7.40;;;6.77;;
2029;SDS011;1020;48.854;8.830;2023-04-25T06:57:57;6.73;;;6.23;;
2029;SDS011;1020;48.854;8.830;2023-04-25T07:00:25;5.60;;;5.03;;
2029;SDS011;1020;48.854;8.830;2023-04-25T07:02:53;6.07;;;5.67;;
2029;SDS011;1020;48.854;8.830;2023-04-25T07:05:21;5.57;;;5.17;;
2029;SDS011;1020;48.854;8.830;2023-04-25T07:07:48;5.50;;;5.10;;
2029;SDS011;1020;48.854;8.830;2023-04-25T07:10:15;6.43;;;6.00;;
2029;SDS011;1020;48.854;8.830;2023-04-25T07:12:41;7.47;;;6.87;;
2029;SDS011;1020;48.854;8.830;2023-04-25T07:15:08;12.43;;;11.53;;
2029;SDS011;1020;48.854;8.830;2023-04-25T07:17:36;6.73;;;6.23;;
2029;SDS011;1020;48.854;8.830;2023-04-25T07:20:03;11.10;;;10.30;;
2029;SDS011;1020;48.854;8.830;2023-04-25T07:22:34;7.40;;;6.70;;
2029;SDS011;1020;48.854;8.830;2023-04-25T07:25:00;6.30;;;5.80;;
2029;SDS011;1020;48.854;8.830;2023-04-25T07:27:29;7.30;;;6.70;;
2029;SDS011;1020;48.854;8.830;2023-04-25T07:29:56;7.63;;;6.93;;
2029;SDS011;1020;48.854;8.830;2023-04-25T07:32:22;9.93;;;9.03;;
2029;SDS011;1020;48.854;8.830;2023-04-25T07:34:49;7.20;;;6.60;;
2029;SDS011;1020;48.854;8.830;2023-04-25T07:37:16;7.87;;;7.17;;
2029;SDS011;1020;48.854;8.830;2023-04-25T07:39:45;7.63;;;6.83;;
2029;SDS011;1020;48.854;8.830;2023-04-25T07:42:12;9.00;;;8.20;;
2029;SDS011;1020;48.854;8.830;2023-04-25T07:44:38;6.30;;;5.80;;
2029;SDS011;1020;48.854;8.830;2023-04-25T07:47:06;7.50;;;6.73;;
2029;SDS011;1020;48.854;8.830;2023-04-25T07:49:33;5.77;;;5.27;;
2029;SDS011;1020;48.854;8.830;2023-04-25T07:52:00;6.20;;;5.47;;
2029;SDS011;1020;48.854;8.830;2023-04-25T07:54:27;6.03;;;5.50;;
2029;SDS011;1020;48.854;8.830;2023-04-25T07:56:56;6.87;;;6.27;;
2029;SDS011;1020;48.854;8.830;2023-04-25T07:59:23;7.03;;;6.43;;
2029;SDS011;1020;48.854;8.830;2023-04-25T08:01:50;7.00;;;6.40;;
2029;SDS011;1020;48.854;8.830;2023-04-25T08:04:17;14.07;;;12.73;;
2029;SDS011;1020;48.854;8.830;2023-04-25T08:06:43;9.77;;;8.77;;
2029;SDS011;1020;48.854;8.830;2023-04-25T08:09:10;8.90;;;8.20;;
2029;SDS011;1020;48.854;8.830;2023-04-25T08:11:37;7.67;;;7.07;;
2029;SDS011;1020;48.854;8.830;2023-04-25T08:14:06;8.13;;;7.33;;
2029;SDS011;1020;48.854;8.830;2023-04-25T08:16:33;8.37;;;7.57;;
2029;SDS011;1020;48.854;8.830;2023-04-25T08:19:00;9.03;;;7.87;;
2029;SDS011;1020;48.854;8.830;2023-04-25T08:21:27;9.40;;;8.50;;
2029;SDS011;1020;48.854;8.830;2023-04-25T08:23:53;8.33;;;7.53;;
2029;SDS011;1020;48.854;8.830;2023-04-25T08:26:21;9.10;;;8.30;;
2029;SDS011;1020;48.854;8.830;2023-04-25T08:28:48;9.20;;;8.40;;
2029;SDS011;1020;48.854;8.830;2023-04-25T08:31:16;9.80;;;8.90;;
2029;SDS011;1020;48.854;8.830;2023-04-25T08:33:43;9.60;;;8.60;;
2029;SDS011;1020;48.854;8.830;2023-04-25T08:36:10;10.27;;;9.43;;
2029;SDS011;1020;48.854;8.830;2023-04-25T08:38:37;9.90;;;9.00;;
2029;SDS011;1020;48.854;8.830;2023-04-25T08:41:04;8.20;;;7.50;;
2029;SDS011;1020;48.854;8.830;2023-04-25T08:43:32;7.90;;;7.20;;
2029;SDS011;1020;48.854;8.830;2023-04-25T08:46:01;8.30;;;7.50;;
2029;SDS011;1020;48.854;8.830;2023-04-25T08:48:31;9.13;;;8.30;;
2029;SDS011;1020;48.854;8.830;2023-04-25T08:50:59;8.30;;;7.23;;
2029;SDS011;1020;48.854;8.830;2023-04-25T08:53:29;11.63;;;7.70;;
2029;SDS011;1020;48.854;8.830;2023-04-25T08:55:58;8.13;;;7.43;;
2029;SDS011;1020;48.854;8.830;2023-04-25T08:58:26;7.93;;;7.23;;
2029;SDS011;1020;48.854;8.830;2023-04-25T09:00:53;6.73;;;6.13;;
2029;SDS011;1020;48.854;8.830;2023-04-25T09:03:20;6.43;;;5.83;;
2029;SDS011;1020;48.854;8.830;2023-04-25T09:05:48;7.03;;;6.33;;
2029;SDS011;1020;48.854;8.830;2023-04-25T09:08:16;7.10;;;6.50;;
2029;SDS011;1020;48.854;8.830;2023-04-25T09:10:43;4.83;;;4.43;;
2029;SDS011;1020;48.854;8.830;2023-04-25T09:13:10;4.37;;;3.97;;
2029;SDS011;1020;48.854;8.830;2023-04-25T09:15:46;3.90;;;3.60;;
2029;SDS011;1020;48.854;8.830;2023-04-25T09:18:21;4.10;;;3.80;;
2029;SDS011;1020;48.854;8.830;2023-04-25T09:20:51;4.40;;;4.03;;
2029;SDS011;1020;48.854;8.830;2023-04-25T09:23:19;4.47;;;4.07;;
2029;SDS011;1020;48.854;8.830;2023-04-25T09:25:47;4.70;;;4.30;;
2029;SDS011;1020;48.854;8.830;2023-04-25T09:28:14;5.27;;;4.77;;
2029;SDS011;1020;48.854;8.830;2023-04-25T09:30:41;4.53;;;4.23;;
2029;SDS011;1020;48.854;8.830;2023-04-25T09:33:09;7.90;;;7.10;;
2029;SDS011;1020;48.854;8.830;2023-04-25T09:35:37;17.83;;;13.90;;
2029;SDS011;1020;48.854;8.830;2023-04-25T09:38:10;11.80;;;9.57;;
2029;SDS011;1020;48.854;8.830;2023-04-25T09:40:41;22.27;;;15.87;;
2029;SDS011;1020;48.854;8.830;2023-04-25T09:43:08;12.40;;;10.73;;
2029;SDS011;1020;48.854;8.830;2023-04-25T09:45:40;10.53;;;9.00;;
2029;SDS011;1020;48.854;8.830;2023-04-25T09:48:11;6.30;;;5.43;;
2029;SDS011;1020;48.854;8.830;2023-04-25T09:50:38;4.80;;;4.40;;
2029;SDS011;1020;48.854;8.830;2023-04-25T09:53:05;4.30;;;3.90;;
2029;SDS011;1020;48.854;8.830;2023-04-25T09:55:34;5.90;;;5.40;;
2029;SDS011;1020;48.854;8.830;2023-04-25T09:58:03;3.50;;;3.20;;
2029;SDS011;1020;48.854;8.830;2023-04-25T10:00:32;3.33;;;3.13;;
2029;SDS011;1020;48.854;8.830;2023-04-25T10:02:59;3.13;;;2.93;;
2029;SDS011;1020;48.854;8.830;2023-04-25T10:05:29;3.47;;;3.20;;
2029;SDS011;1020;48.854;8.830;2023-04-25T10:07:58;2.80;;;2.60;;
2029;SDS011;1020;48.854;8.830;2023-04-25T10:10:28;4.60;;;4.20;;
2029;SDS011;1020;48.854;8.830;2023-04-25T10:13:02;2.90;;;2.70;;
2029;SDS011;1020;48.854;8.830;2023-04-25T10:15:34;3.17;;;2.93;;
2029;SDS011;1020;48.854;8.830;2023-04-25T10:18:02;7.00;;;4.70;;
2029;SDS011;1020;48.854;8.830;2023-04-25T10:20:29;5.33;;;4.83;;
2029;SDS011;1020;48.854;8.830;2023-04-25T10:22:57;5.50;;;5.10;;
2029;SDS011;1020;48.854;8.830;2023-04-25T10:25:29;5.57;;;4.90;;
2029;SDS011;1020;48.854;8.830;2023-04-25T10:27:57;4.90;;;4.17;;
2029;SDS011;1020;48.854;8.830;2023-04-25T10:30:27;4.77;;;4.40;;
2029;SDS011;1020;48.854;8.830;2023-04-25T10:32:54;5.27;;;4.83;;
2029;SDS011;1020;48.854;8.830;2023-04-25T10:35:24;6.37;;;5.50;;
2029;SDS011;1020;48.854;8.830;2023-04-25T10:37:56;5.40;;;4.90;;
2029;SDS011;1020;48.854;8.830;2023-04-25T10:40:24;6.00;;;5.50;;
2029;SDS011;1020;48.854;8.830;2023-04-25T10:42:51;5.50;;;5.00;;
2029;SDS011;1020;48.854;8.830;2023-04-25T10:45:19;4.10;;;3.70;;
2029;SDS011;1020;48.854;8.830;2023-04-25T10:47:48;4.57;;;4.17;;
2029;SDS011;1020;48.854;8.830;2023-04-25T10:50:14;3.67;;;3.37;;
2029;SDS011;1020;48.854;8.830;2023-04-25T10:52:42;2.70;;;2.50;;
2029;SDS011;1020;48.854;8.830;2023-04-25T10:55:09;3.27;;;3.07;;
2029;SDS011;1020;48.854;8.830;2023-04-25T10:57:37;3.60;;;3.40;;
2029;SDS011;1020;48.854;8.830;2023-04-25T11:00:18;4.10;;;3.80;;
2029;SDS011;1020;48.854;8.830;2023-04-25T11:02:53;4.00;;;3.70;;
2029;SDS011;1020;48.854;8.830;2023-04-25T11:05:28;3.80;;;3.50;;
2029;SDS011;1020;48.854;8.830;2023-04-25T11:07:57;3.40;;;3.20;;
2029;SDS011;1020;48.854;8.830;2023-04-25T11:10:25;4.73;;;4.33;;
2029;SDS011;1020;48.854;8.830;2023-04-25T11:12:52;8.30;;;6.90;;
2029;SDS011;1020;48.854;8.830;2023-04-25T11:15:19;6.20;;;5.70;;
2029;SDS011;1020;48.854;8.830;2023-04-25T11:17:46;7.87;;;7.17;;
2029;SDS011;1020;48.854;8.830;2023-04-25T11:20:14;13.03;;;9.00;;
2029;SDS011;1020;48.854;8.830;2023-04-25T11:22:41;8.20;;;7.40;;
2029;SDS011;1020;48.854;8.830;2023-04-25T11:25:11;9.00;;;8.10;;
2029;SDS011;1020;48.854;8.830;2023-04-25T11:27:48;9.03;;;8.13;;
2029;SDS011;1020;48.854;8.830;2023-04-25T11:30:16;9.80;;;8.53;;
2029;SDS011;1020;48.854;8.830;2023-04-25T11:32:43;9.37;;;8.47;;
2029;SDS011;1020;48.854;8.830;2023-04-25T11:35:10;8.80;;;7.90;;
2029;SDS011;1020;48.854;8.830;2023-04-25T11:37:39;10.17;;;8.90;;
2029;SDS011;1020;48.854;8.830;2023-04-25T11:40:07;8.33;;;7.53;;
2029;SDS011;1020;48.854;8.830;2023-04-25T11:42:36;11.53;;;8.90;;
2029;SDS011;1020;48.854;8.830;2023-04-25T11:45:04;9.93;;;8.63;;
2029;SDS011;1020;48.854;8.830;2023-04-25T11:47:32;9.53;;;8.63;;
2029;SDS011;1020;48.854;8.830;2023-04-25T11:50:00;9.93;;;8.90;;
2029;SDS011;1020;48.854;8.830;2023-04-25T11:52:37;9.07;;;8.17;;
2029;SDS011;1020;48.854;8.830;2023-04-25T11:55:07;8.93;;;8.23;;
2029;SDS011;1020;48.854;8.830;2023-04-25T11:57:35;8.33;;;7.60;;
2029;SDS011;1020;48.854;8.830;2023-04-25T12:00:08;7.13;;;6.53;;
2029;SDS011;1020;48.854;8.830;2023-04-25T12:02:39;7.27;;;6.57;;
2029;SDS011;1020;48.854;8.830;2023-04-25T12:05:08;8.53;;;7.77;;
2029;SDS011;1020;48.854;8.830;2023-04-25T12:07:35;9.83;;;8.57;;
2029;SDS011;1020;48.854;8.830;2023-04-25T12:10:07;7.40;;;6.70;;
2029;SDS011;1020;48.854;8.830;2023-04-25T12:12:35;7.50;;;6.60;;
2029;SDS011;1020;48.854;8.830;2023-04-25T12:15:09;6.70;;;6.20;;
2029;SDS011;1020;48.854;8.830;2023-04-25T12:17:39;7.03;;;6.33;;
2029;SDS011;1020;48.854;8.830;2023-04-25T12:20:07;6.30;;;5.70;;
2029;SDS011;1020;48.854;8.830;2023-04-25T12:22:35;5.03;;;4.60;;
2029;SDS011;1020;48.854;8.830;2023-04-25T12:25:02;7.17;;;6.13;;
2029;SDS011;1020;48.854;8.830;2023-04-25T12:27:31;5.90;;;4.70;;
2029;SDS011;1020;48.854;8.830;2023-04-25T12:29:58;5.97;;;5.47;;
2029;SDS011;1020;48.854;8.830;2023-04-25T12:32:25;6.50;;;5.90;;
2029;SDS011;1020;48.854;8.830;2023-04-25T12:34:52;6.80;;;6.20;;
2029;SDS011;1020;48.854;8.830;2023-04-25T12:37:19;6.60;;;5.90;;
2029;SDS011;1020;48.854;8.830;2023-04-25T12:39:45;6.70;;;6.13;;
2029;SDS011;1020;48.854;8.830;2023-04-25T12:42:12;7.83;;;7.03;;
2029;SDS011;1020;48.854;8.830;2023-04-25T12:44:40;7.20;;;6.60;;
2029;SDS011;1020;48.854;8.830;2023-04-25T12:47:07;7.97;;;7.17;;
2029;SDS011;1020;48.854;8.830;2023-04-25T12:49:34;9.30;;;8.40;;
2029;SDS011;1020;48.854;8.830;2023-04-25T12:52:01;20.10;;;15.03;;
2029;SDS011;1020;48.854;8.830;2023-04-25T12:54:28;36.67;;;24.50;;
2029;SDS011;1020;48.854;8.830;2023-04-25T12:56:54;18.80;;;14.13;;
2029;SDS011;1020;48.854;8.830;2023-04-25T12:59:21;7.83;;;7.13;;
2029;SDS011;1020;48.854;8.830;2023-04-25T13:01:49;8.07;;;7.37;;
2029;SDS011;1020;48.854;8.830;2023-04-25T13:04:16;8.13;;;6.60;;
2029;SDS011;1020;48.854;8.830;2023-04-25T13:06:45;5.97;;;5.57;;
2029;SDS011;1020;48.854;8.830;2023-04-25T13:09:11;5.90;;;5.40;;
2029;SDS011;1020;48.854;8.830;2023-04-25T13:11:38;5.60;;;5.20;;
2029;SDS011;1020;48.854;8.830;2023-04-25T13:14:05;6.67;;;6.07;;
2029;SDS011;1020;48.854;8.830;2023-04-25T13:16:32;7.40;;;6.70;;
2029;SDS011;1020;48.854;8.830;2023-04-25T13:19:01;7.70;;;6.93;;
2029;SDS011;1020;48.854;8.830;2023-04-25T13:21:29;7.13;;;6.50;;
2029;SDS011;1020;48.854;8.830;2023-04-25T13:23:57;7.37;;;6.67;;
2029;SDS011;1020;48.854;8.830;2023-04-25T13:26:23;6.93;;;6.43;;
2029;SDS011;1020;48.854;8.830;2023-04-25T13:28:50;6.80;;;6.30;;
2029;SDS011;1020;48.854;8.830;2023-04-25T13:31:17;6.83;;;6.23;;
2029;SDS011;1020;48.854;8.830;2023-04-25T13:33:44;6.80;;;6.00;;
2029;SDS011;1020;48.854;8.830;2023-04-25T13:36:12;6.67;;;6.17;;
2029;SDS011;1020;48.854;8.830;2023-04-25T13:38:39;7.10;;;6.50;;
2029;SDS011;1020;48.854;8.830;2023-04-25T13:41:08;7.77;;;7.13;;
2029;SDS011;1020;48.854;8.830;2023-04-25T13:43:36;7.87;;;7.13;;
2029;SDS011;1020;48.854;8.830;2023-04-25T13:46:02;7.30;;;6.70;;
2029;SDS011;1020;48.854;8.830;2023-04-25T13:48:29;7.13;;;6.53;;
2029;SDS011;1020;48.854;8.830;2023-04-25T13:50:56;6.60;;;5.90;;
2029;SDS011;1020;48.854;8.830;2023-04-25T13:53:25;6.70;;;6.10;;
2029;SDS011;1020;48.854;8.830;2023-04-25T13:55:51;5.93;;;5.43;;
2029;SDS011;1020;48.854;8.830;2023-04-25T13:58:18;6.73;;;5.93;;
2029;SDS011;1020;48.854;8.830;2023-04-25T14:00:46;6.03;;;5.43;;
2029;SDS011;1020;48.854;8.830;2023-04-25T14:03:12;5.33;;;4.93;;
2029;SDS011;1020;48.854;8.830;2023-04-25T14:05:39;5.00;;;4.60;;
2029;SDS011;1020;48.854;8.830;2023-04-25T14:08:06;5.77;;;5.37;;
2029;SDS011;1020;48.854;8.830;2023-04-25T14:10:35;5.60;;;5.10;;
2029;SDS011;1020;48.854;8.830;2023-04-25T14:13:03;5.70;;;5.20;;
2029;SDS011;1020;48.854;8.830;2023-04-25T14:15:30;5.30;;;4.80;;
2029;SDS011;1020;48.854;8.830;2023-04-25T14:17:57;4.90;;;4.50;;
2029;SDS011;1020;48.854;8.830;2023-04-25T14:20:24;4.67;;;4.37;;
2029;SDS011;1020;48.854;8.830;2023-04-25T14:22:51;4.67;;;4.27;;
2029;SDS011;1020;48.854;8.830;2023-04-25T14:25:19;4.57;;;4.10;;
2029;SDS011;1020;48.854;8.830;2023-04-25T14:27:47;4.63;;;4.33;;
2029;SDS011;1020;48.854;8.830;2023-04-25T14:30:15;5.17;;;4.67;;
2029;SDS011;1020;48.854;8.830;2023-04-25T14:32:42;6.43;;;5.33;;
2029;SDS011;1020;48.854;8.830;2023-04-25T14:35:10;4.90;;;4.50;;
2029;SDS011;1020;48.854;8.830;2023-04-25T14:37:37;4.60;;;4.20;;
2029;SDS011;1020;48.854;8.830;2023-04-25T14:40:04;5.13;;;4.60;;
2029;SDS011;1020;48.854;8.830;2023-04-25T14:42:34;5.97;;;5.47;;
2029;SDS011;1020;48.854;8.830;2023-04-25T14:45:02;5.00;;;4.60;;
2029;SDS011;1020;48.854;8.830;2023-04-25T14:47:30;4.60;;;4.30;;
2029;SDS011;1020;48.854;8.830;2023-04-25T14:49:56;5.20;;;4.30;;
2029;SDS011;1020;48.854;8.830;2023-04-25T14:52:23;6.70;;;4.10;;
2029;SDS011;1020;48.854;8.830;2023-04-25T14:54:50;8.60;;;4.50;;
2029;SDS011;1020;48.854;8.830;2023-04-25T14:57:17;4.77;;;4.47;;
2029;SDS011;1020;48.854;8.830;2023-04-25T14:59:44;4.50;;;4.10;;
2029;SDS011;1020;48.854;8.830;2023-04-25T15:02:12;6.73;;;4.67;;
2029;SDS011;1020;48.854;8.830;2023-04-25T15:04:39;5.47;;;4.97;;
2029;SDS011;1020;48.854;8.830;2023-04-25T15:07:06;6.83;;;5.10;;
2029;SDS011;1020;48.854;8.830;2023-04-25T15:09:33;4.87;;;4.40;;
2029;SDS011;1020;48.854;8.830;2023-04-25T15:12:00;5.60;;;5.10;;
2029;SDS011;1020;48.854;8.830;2023-04-25T15:14:28;5.50;;;5.00;;
2029;SDS011;1020;48.854;8.830;2023-04-25T15:16:55;5.30;;;4.90;;